Latest Weather Observations for Jacup

IDW60801

Issued at 8:02 am WST Friday 28 August 2015 (issued every 30 minutes, with the page automatically refreshed every 10 minutes)

About weather observations | Map of weather stations | Latest weather observations for WA | Other Formats
Station Details ID: 010905 Name: JACUP Lat: -33.89 Lon: 119.11 Height: 305.0 m
Data from the previous 72 hours. | See also: Recent months at Jacup
Date/Time
WST
Temp
°C
App
Temp
°C
Dew
Point
Rel
Hum
%
Delta-T
°C
Wind Press
QNH
hPa
Press
MSL
hPa
Rain
since 9 am
mm
Dir
 
Spd
km/h
Gust
km/h
Spd
kts
Gust
kts
28/08:00am 12.1 5.1 2.0 50 4.4 N 28 39 15 21 1016.4 1016.5 0.0
28/07:30am 10.6 4.0 1.9 55 3.7 N 26 37 14 20 1016.4 1016.5 0.0
28/07:00am 9.3 3.4 1.9 60 3.1 N 22 30 12 16 1016.6 1016.7 0.0
28/06:30am 8.5 3.0 1.9 63 2.8 N 20 30 11 16 1016.3 1016.4 0.0
28/06:00am 8.6 2.7 2.0 63 2.8 N 22 30 12 16 1016.1 1016.2 0.0
28/05:30am 8.9 2.7 2.0 62 2.9 N 24 32 13 17 1016.0 1016.1 0.0
28/05:00am 9.2 3.0 2.1 61 3.0 N 24 30 13 16 1015.7 1015.8 0.0
28/04:30am 10.0 3.4 2.1 58 3.4 N 26 37 14 20 1015.5 1015.5 0.0
28/04:00am 9.5 3.3 2.4 61 3.1 N 24 32 13 17 1015.4 1015.4 0.0
28/03:30am 8.4 3.1 2.8 68 2.4 NNE 20 26 11 14 1015.6 1015.7 0.0
28/03:00am 9.2 3.9 3.0 65 2.7 NNE 20 26 11 14 1015.8 1015.9 0.0
28/02:30am 9.7 4.4 3.0 63 2.9 NNE 20 28 11 15 1016.1 1016.2 0.0
28/02:00am 10.0 4.7 2.8 61 3.1 NNE 20 28 11 15 1016.4 1016.5 0.0
28/01:30am 9.9 4.6 3.0 62 3.0 NNE 20 26 11 14 1016.7 1016.8 0.0
28/01:00am 9.4 4.7 3.4 66 2.6 NNE 17 20 9 11 1017.1 1017.2 0.0
28/12:30am 10.5 5.2 3.1 60 3.3 NNE 20 28 11 15 1017.2 1017.3 0.0
28/12:00am 10.2 5.2 3.7 64 2.9 NNE 19 24 10 13 1017.3 1017.4 0.0
 
Date/Time
WST
Temp
°C
App
Temp
°C
Dew
Point
Rel
Hum
%
Delta-T
°C
Wind Press
QNH
hPa
Press
MSL
hPa
Rain
since 9 am
mm
Dir
 
Spd
km/h
Gust
km/h
Spd
kts
Gust
kts
27/11:30pm 10.6 6.0 3.6 62 3.1 NNE 17 24 9 13 1017.5 1017.5 0.0
27/11:00pm 10.8 5.9 4.0 63 3.1 NNE 19 26 10 14 1017.8 1017.8 0.0
27/10:30pm 11.3 6.3 3.8 60 3.4 NNE 19 24 10 13 1018.2 1018.2 0.0
27/10:00pm 12.0 7.1 4.0 58 3.6 NNE 19 24 10 13 1018.4 1018.5 0.0
27/09:30pm 12.8 8.3 4.0 55 4.0 NE 17 24 9 13 1018.6 1018.7 0.0
27/09:00pm 13.7 8.6 4.0 52 4.5 NNE 20 28 11 15 1018.7 1018.8 0.0
27/08:30pm 13.8 8.7 4.1 52 4.5 NE 20 28 11 15 1018.7 1018.8 0.0
27/08:00pm 13.3 8.5 4.5 55 4.1 NE 19 28 10 15 1018.6 1018.7 0.0
27/07:30pm 12.5 8.6 5.2 61 3.4 NE 15 19 8 10 1018.8 1018.9 0.0
27/07:00pm 12.4 8.5 5.3 62 3.3 NE 15 19 8 10 1018.8 1018.9 0.0
27/06:30pm 12.8 9.4 5.7 62 3.4 NE 13 17 7 9 1018.8 1018.9 0.0
27/06:00pm 13.7 10.0 6.1 60 3.7 NE 15 19 8 10 1018.7 1018.8 0.0
27/05:30pm 15.5 12.8 7.5 59 4.0 ENE 11 13 6 7 1018.5 1018.6 0.0
27/05:00pm 16.8 14.6 8.0 56 4.5 NE 9 11 5 6 1018.6 1018.7 0.0
27/04:30pm 18.4 15.3 5.6 43 6.3 NNE 11 15 6 8 1018.5 1018.6 0.0
27/04:00pm 19.0 15.3 4.7 39 7.0 NNE 13 17 7 9 1018.6 1018.7 0.0
27/03:30pm 17.7 15.0 5.6 45 6.0 NNE 9 13 5 7 1018.8 1018.9 0.0
27/03:00pm 18.8 14.3 4.2 38 7.0 N 17 26 9 14 1018.9 1019.0 0.0
27/02:30pm 19.0 14.4 3.6 36 7.4 N 17 24 9 13 1018.9 1019.0 0.0
27/02:00pm 18.4 13.3 3.1 36 7.2 N 19 28 10 15 1019.0 1019.1 0.0
27/01:30pm 19.9 14.5 2.3 31 8.3 N 20 32 11 17 1019.3 1019.4 0.0
27/01:00pm 19.2 14.5 3.4 35 7.5 NNE 17 26 9 14 1019.7 1019.8 0.0
27/12:30pm 19.1 14.1 3.7 36 7.4 N 19 30 10 16 1020.2 1020.3 0.0
27/12:00pm 19.3 14.3 4.6 38 7.2 NNE 20 30 11 16 1020.6 1020.7 0.0
27/11:30am 18.8 13.9 5.3 41 6.7 N 20 28 11 15 1021.2 1021.3 0.0
27/11:00am 17.8 12.6 3.7 39 6.7 N 20 32 11 17 1021.8 1021.9 0.0
27/10:30am 16.6 11.7 4.3 44 5.9 N 19 28 10 15 1021.8 1021.9 0.0
27/10:00am 15.3 10.7 5.5 52 4.7 NNE 19 26 10 14 1022.0 1022.1 0.0
27/09:30am 13.3 8.4 5.0 57 3.9 N 20 28 11 15 1022.0 1022.1 0.0
27/09:00am 11.8 6.5 5.2 64 3.1 N 22 32 12 17 1022.0 1022.1 0.0
27/08:30am 10.6 6.2 4.9 68 2.6 NNE 17 22 9 12 1022.0 1022.1 0.0
27/08:00am 9.3 4.8 4.1 70 2.3 NNE 17 22 9 12 1022.0 1022.1 0.0
27/07:30am 8.0 3.8 3.7 74 1.9 N 15 17 8 9 1021.8 1021.9 0.0
27/07:00am 6.0 1.6 2.8 80 1.3 N 15 19 8 10 1021.6 1021.7 0.0
27/06:30am 4.8 0.7 2.0 82 1.1 N 13 15 7 8 1021.4 1021.5 0.0
27/06:00am 5.1 1.0 2.1 81 1.2 N 13 15 7 8 1021.2 1021.3 0.0
27/05:30am 5.6 1.1 2.4 80 1.3 N 15 17 8 9 1021.1 1021.1 0.0
27/05:00am 5.7 1.6 2.4 79 1.4 N 13 15 7 8 1020.9 1020.9 0.0
27/04:30am 5.7 2.0 2.5 80 1.3 N 11 13 6 7 1021.0 1021.0 0.0
27/04:00am 4.4 1.1 2.3 86 0.9 N 9 11 5 6 1020.9 1020.9 0.0
27/03:30am 5.2 1.5 2.2 81 1.2 N 11 13 6 7 1020.7 1020.8 0.0
27/03:00am 5.9 1.9 2.9 81 1.3 N 13 15 7 8 1021.0 1021.0 0.0
27/02:30am 5.4 1.4 2.6 82 1.2 N 13 15 7 8 1021.3 1021.4 0.0
27/02:00am 6.3 2.3 3.1 80 1.4 N 13 13 7 7 1021.4 1021.5 0.0
27/01:30am 5.8 2.2 3.1 83 1.1 N 11 13 6 7 1021.5 1021.6 0.0
27/01:00am 6.0 2.1 3.3 83 1.1 N 13 13 7 7 1021.8 1021.9 0.0
27/12:30am 5.6 1.7 3.4 86 0.9 N 13 15 7 8 1021.9 1022.0 0.0
27/12:00am 5.8 1.9 3.3 84 1.1 N 13 15 7 8 1022.0 1022.1 0.0
 
Date/Time
WST
Temp
°C
App
Temp
°C
Dew
Point
Rel
Hum
%
Delta-T
°C
Wind Press
QNH
hPa
Press
MSL
hPa
Rain
since 9 am
mm
Dir
 
Spd
km/h
Gust
km/h
Spd
kts
Gust
kts
26/11:30pm 6.6 3.2 3.8 82 1.2 N 11 13 6 7 1022.0 1022.1 0.0
26/11:00pm 6.9 3.1 3.7 80 1.4 N 13 13 7 7 1022.1 1022.2 0.0
26/10:30pm 7.2 3.8 4.0 80 1.4 N 11 11 6 6 1022.3 1022.4 0.0
26/10:00pm 7.0 3.9 3.8 80 1.4 N 9 13 5 7 1022.3 1022.4 0.0
26/09:30pm 8.5 5.5 4.1 74 2.0 N 9 9 5 5 1022.5 1022.6 0.0
26/09:00pm 8.8 6.0 5.0 77 1.7 N 9 11 5 6 1022.6 1022.7 0.0
26/08:30pm 9.4 6.7 5.6 77 1.8 N 9 11 5 6 1022.6 1022.7 0.0
26/08:00pm 10.0 7.4 6.2 77 1.8 N 9 11 5 6 1022.4 1022.5 0.0
26/07:30pm 10.2 8.0 6.4 77 1.8 NNE 7 9 4 5 1022.4 1022.5 0.0
26/07:00pm 10.3 8.2 6.5 77 1.8 NNE 7 9 4 5 1022.2 1022.3 0.0
26/06:30pm 11.2 10.4 6.5 73 2.3 CALM 0 0 0 0 1022.0 1022.1 0.0
26/06:00pm 11.8 11.1 7.1 73 2.3 CALM 0 0 0 0 1021.8 1021.9 0.0
26/05:30pm 13.1 12.4 7.1 67 3.0 CALM 0 0 0 0 1021.6 1021.7 0.0
26/05:00pm 14.6 13.7 6.2 57 4.1 CALM 0 0 0 0 1021.5 1021.6 0.0
26/04:30pm 15.2 13.0 5.4 52 4.7 W 6 7 3 4 1021.4 1021.5 0.0
26/04:00pm 15.6 12.6 4.0 46 5.4 W 9 15 5 8 1021.2 1021.3 0.0
26/03:30pm 16.3 13.3 4.0 44 5.8 NW 9 17 5 9 1021.1 1021.1 0.0
26/03:00pm 16.8 13.5 4.5 44 5.9 NNW 11 17 6 9 1021.0 1021.0 0.0
26/02:30pm 16.3 11.9 2.7 40 6.3 NNW 15 24 8 13 1021.0 1021.0 0.0
26/02:00pm 16.8 13.5 6.3 50 5.2 NNW 13 20 7 11 1021.2 1021.3 0.0
26/01:30pm 15.9 12.6 4.3 46 5.5 NNW 11 17 6 9 1021.2 1021.3 0.0
26/01:00pm 16.0 12.0 4.7 47 5.4 N 15 24 8 13 1021.6 1021.7 0.0
26/12:30pm 15.7 11.3 5.0 49 5.1 N 17 26 9 14 1022.1 1022.2 0.0
26/12:00pm 15.6 10.8 4.6 48 5.2 N 19 28 10 15 1022.4 1022.5 0.0
26/11:30am 15.7 10.0 4.7 48 5.3 N 24 39 13 21 1022.7 1022.8 0.0
26/11:00am 15.3 10.7 6.3 55 4.4 N 20 30 11 16 1023.1 1023.2 0.0
26/10:30am 13.9 8.6 5.0 55 4.2 N 22 28 12 15 1023.5 1023.6 0.0
26/10:00am 12.3 7.0 5.0 61 3.4 N 22 30 12 16 1023.7 1023.8 0.0
26/09:30am 11.1 6.4 6.0 71 2.4 N 20 28 11 15 1023.9 1024.1 0.0
26/09:00am 9.1 4.5 5.7 79 1.6 N 19 28 10 15 1023.9 1024.1 0.0
26/08:30am 8.1 3.8 5.2 82 1.3 NNE 17 26 9 14 1023.9 1024.1 0.0
26/08:00am 7.2 2.8 4.5 83 1.2 N 17 24 9 13 1023.7 1023.8 0.0
26/07:30am 5.2 0.6 3.5 89 0.7 N 17 22 9 12 1023.9 1024.1 0.0
26/07:00am 3.8 -1.0 2.5 91 0.5 N 17 20 9 11 1023.8 1023.9 0.0
26/06:30am 3.0 -1.6 1.8 92 0.5 N 15 19 8 10 1023.5 1023.6 0.0
26/06:00am 2.8 -1.8 1.6 92 0.5 N 15 17 8 9 1023.3 1023.4 0.0
26/05:30am 2.8 -1.8 1.5 91 0.5 N 15 17 8 9 1023.3 1023.4 0.0
26/05:00am 3.1 -1.5 1.6 90 0.6 N 15 17 8 9 1023.2 1023.3 0.0
26/04:30am 3.4 -0.8 1.9 90 0.6 N 13 17 7 9 1023.1 1023.2 0.0
26/04:00am 3.5 -1.0 2.0 90 0.6 N 15 17 8 9 1023.1 1023.2 0.0
26/03:30am 3.5 -0.6 2.0 90 0.6 N 13 15 7 8 1023.2 1023.3 0.0
26/03:00am 3.3 -0.8 2.0 91 0.5 NNE 13 15 7 8 1023.5 1023.6 0.0
26/02:30am 3.3 -0.8 2.0 91 0.5 N 13 15 7 8 1023.9 1024.1 0.0
26/02:00am 3.5 -0.6 2.2 91 0.5 N 13 15 7 8 1024.0 1024.2 0.0
26/01:30am 3.9 0.2 2.4 90 0.6 N 11 13 6 7 1024.2 1024.4 0.0
26/01:00am 4.0 0.3 2.4 89 0.6 N 11 13 6 7 1024.7 1024.8 0.0
26/12:30am 4.6 1.0 2.8 88 0.7 N 11 13 6 7 1024.9 1025.0 0.0
26/12:00am 5.3 1.4 3.3 87 0.8 N 13 13 7 7 1025.2 1025.3 0.0
 
Date/Time
WST
Temp
°C
App
Temp
°C
Dew
Point
Rel
Hum
%
Delta-T
°C
Wind Press
QNH
hPa
Press
MSL
hPa
Rain
since 9 am
mm
Dir
 
Spd
km/h
Gust
km/h
Spd
kts
Gust
kts
25/11:30pm 6.1 2.7 4.1 87 0.9 N 11 13 6 7 1025.5 1025.6 0.0
25/11:00pm 6.4 2.7 4.2 86 1.0 N 13 15 7 8 1025.7 1025.8 0.0
25/10:30pm 6.8 3.1 4.5 85 1.0 N 13 17 7 9 1026.1 1026.2 0.0
25/10:00pm 7.0 2.9 4.1 82 1.3 N 15 17 8 9 1026.1 1026.2 0.0
25/09:30pm 7.8 4.5 4.6 80 1.4 NNE 11 15 6 8 1026.1 1026.2 0.0
25/09:00pm 9.2 5.6 5.2 76 1.8 NNE 13 17 7 9 1026.0 1026.1 0.0
25/08:30pm 9.3 5.8 5.3 76 1.8 NE 13 17 7 9 1025.9 1026.0 0.0
25/08:00pm 10.2 6.8 5.8 74 2.0 NE 13 17 7 9 1025.9 1026.0 0.0
25/07:30pm 9.3 6.3 6.0 80 1.5 NE 11 15 6 8 1026.0 1026.1 0.0
25/07:00pm 8.8 8.0 6.4 85 1.1 CALM 0 0 0 0 1025.8 1025.9 0.0
25/06:30pm 10.8 9.0 7.3 79 1.7 ENE 6 7 3 4 1025.8 1025.9 0.0
25/06:00pm 11.7 11.0 6.8 72 2.4 CALM 0 0 0 0 1025.8 1025.9 0.0
25/05:30pm 13.0 11.2 7.0 67 2.9 ENE 6 7 3 4 1025.5 1025.6 0.0
25/05:00pm 13.4 12.5 6.0 61 3.5 CALM 0 0 0 0 1025.4 1025.5 0.0
25/04:30pm 12.9 11.0 6.9 67 2.9 NE 6 7 3 4 1025.3 1025.4 0.0
25/04:00pm 13.3 10.7 6.2 62 3.4 NE 9 13 5 7 1025.4 1025.5 0.0
25/03:30pm 14.0 11.0 6.1 59 3.8 N 11 17 6 9 1025.5 1025.6 0.0
25/03:00pm 14.7 11.7 5.8 55 4.3 NNE 11 15 6 8 1025.7 1025.8 0.0
25/02:30pm 14.3 11.0 6.4 59 3.9 NE 13 20 7 11 1026.0 1026.1 0.0
25/02:00pm 13.4 9.7 6.3 62 3.4 NNE 15 22 8 12 1026.2 1026.3 0.0
25/01:30pm 13.7 9.3 6.6 62 3.5 NNE 19 24 10 13 1026.4 1026.5 0.0
25/01:00pm 13.4 9.9 7.0 65 3.1 NNE 15 24 8 13 1026.9 1027.1 0.0
25/12:30pm 12.3 8.2 6.4 67 2.8 NE 17 26 9 14 1027.5 1027.7 0.0
25/12:00pm 12.1 7.8 6.8 70 2.6 NNE 19 28 10 15 1028.1 1028.2 0.0
25/11:30am 11.9 7.2 6.2 68 2.7 NNE 20 32 11 17 1028.7 1028.8 0.0
25/11:00am 11.0 7.0 6.6 74 2.1 NNE 17 28 9 15 1029.2 1029.3 0.0
25/10:30am 10.5 6.0 7.0 79 1.7 NNE 20 28 11 15 1029.4 1029.5 0.0
25/10:00am 9.3 4.3 6.6 83 1.3 NNE 22 33 12 18 1029.7 1029.9 0.0
25/09:30am 8.9 4.6 7.0 88 0.9 N 19 28 10 15 1029.9 1030.1 0.0
25/09:00am 7.7 3.2 6.3 91 0.6 N 19 30 10 16 1030.2 1030.4 1.2
25/08:30am 6.5 1.7 5.6 94 0.4 NNE 20 28 11 15 1030.0 1030.2 1.2

Other Formats:

Comma delimited format used in spreadsheet applications
http://www.bom.gov.au/fwo/IDW60801/IDW60801.95636.axf

JavaScript Object Notation format (JSON) in row-major order
http://www.bom.gov.au/fwo/IDW60801/IDW60801.95636.json